createdAt,value
2019-04-06T00:01:45.144Z,7.59
2019-04-06T00:04:12.371Z,7.54
2019-04-06T00:06:38.548Z,7.50
2019-04-06T00:09:05.767Z,7.45
2019-04-06T00:11:32.155Z,7.38
2019-04-06T00:13:58.350Z,7.35
2019-04-06T00:16:24.446Z,7.28
2019-04-06T00:18:50.639Z,7.24
2019-04-06T00:21:16.711Z,7.22
2019-04-06T00:23:42.941Z,7.21
2019-04-06T00:26:09.296Z,7.21
2019-04-06T00:28:35.641Z,7.18
2019-04-06T00:31:03.786Z,7.16
2019-04-06T00:33:31.181Z,7.12
2019-04-06T00:35:57.320Z,7.09
2019-04-06T00:38:23.523Z,7.08
2019-04-06T00:40:49.660Z,7.05
2019-04-06T00:43:17.128Z,7.03
2019-04-06T00:45:43.413Z,7.00
2019-04-06T00:48:09.515Z,6.97
2019-04-06T00:50:35.734Z,6.97
2019-04-06T00:53:01.858Z,6.93
2019-04-06T00:55:28.143Z,6.91
2019-04-06T00:57:54.274Z,6.87
2019-04-06T01:00:20.711Z,6.84
2019-04-06T01:02:46.975Z,6.81
2019-04-06T01:05:13.274Z,6.77
2019-04-06T01:07:39.594Z,6.75
2019-04-06T01:10:06.428Z,6.77
2019-04-06T01:12:32.516Z,6.75
2019-04-06T01:14:58.756Z,6.71
2019-04-06T01:17:24.922Z,6.66
2019-04-06T01:19:51.189Z,6.61
2019-04-06T01:22:17.453Z,6.57
2019-04-06T01:24:43.814Z,6.52
2019-04-06T01:27:10.041Z,6.51
2019-04-06T01:29:37.144Z,6.49
2019-04-06T01:32:03.580Z,6.49
2019-04-06T01:34:29.686Z,6.47
2019-04-06T01:36:55.893Z,6.46
2019-04-06T01:39:21.985Z,6.43
2019-04-06T01:41:48.179Z,6.38
2019-04-06T01:44:14.425Z,6.35
2019-04-06T01:46:40.692Z,6.31
2019-04-06T01:49:06.897Z,6.28
2019-04-06T01:51:32.991Z,6.27
2019-04-06T01:53:59.205Z,6.26
2019-04-06T01:56:25.311Z,6.27
2019-04-06T01:58:51.509Z,6.28
2019-04-06T02:01:37.876Z,6.28
2019-04-06T02:04:04.074Z,6.28
2019-04-06T02:06:30.218Z,6.27
2019-04-06T02:08:56.419Z,6.27
2019-04-06T02:11:22.689Z,6.29
2019-04-06T02:13:48.877Z,6.33
2019-04-06T02:16:15.094Z,6.34
2019-04-06T02:18:41.248Z,6.34
2019-04-06T02:21:07.561Z,6.33
2019-04-06T02:23:33.655Z,6.32
2019-04-06T02:25:59.878Z,6.28
2019-04-06T02:28:25.986Z,6.24
2019-04-06T02:30:54.278Z,6.21
2019-04-06T02:33:25.364Z,6.17
2019-04-06T02:35:56.249Z,6.16
2019-04-06T02:38:24.526Z,6.15
2019-04-06T02:41:01.517Z,6.18
2019-04-06T02:43:29.631Z,6.19
2019-04-06T02:45:57.193Z,6.19
2019-04-06T02:48:23.473Z,6.19
2019-04-06T02:50:49.718Z,6.18
2019-04-06T02:53:15.917Z,6.19
2019-04-06T02:55:42.210Z,6.19
2019-04-06T02:58:08.567Z,6.19
2019-04-06T03:00:34.833Z,6.23
2019-04-06T03:03:01.171Z,6.25
2019-04-06T03:05:27.424Z,6.24
2019-04-06T03:07:53.862Z,6.21
2019-04-06T03:10:20.149Z,6.18
2019-04-06T03:12:46.490Z,6.16
2019-04-06T03:15:12.977Z,6.10
2019-04-06T03:17:39.086Z,6.08
2019-04-06T03:20:05.676Z,6.03
2019-04-06T03:22:32.000Z,6.00
2019-04-06T03:24:58.203Z,5.97
2019-04-06T03:27:24.435Z,5.95
2019-04-06T03:29:58.203Z,5.92
2019-04-06T03:32:19.151Z,5.92
2019-04-06T03:34:45.727Z,5.90
2019-04-06T03:37:12.076Z,5.88
2019-04-06T03:39:38.168Z,5.88
2019-04-06T03:42:04.388Z,5.86
2019-04-06T03:44:30.769Z,5.83
2019-04-06T03:46:57.034Z,5.81
2019-04-06T03:49:23.204Z,5.77
2019-04-06T03:51:49.406Z,5.73
2019-04-06T03:54:15.558Z,5.71
2019-04-06T03:56:41.721Z,5.73
2019-04-06T03:59:09.418Z,5.72
2019-04-06T04:01:36.640Z,5.72
2019-04-06T04:04:02.994Z,5.68
2019-04-06T04:06:29.167Z,5.66
2019-04-06T04:08:55.934Z,5.66
2019-04-06T04:11:22.283Z,5.62
2019-04-06T04:13:48.406Z,5.61
2019-04-06T04:16:14.613Z,5.59
2019-04-06T04:18:40.710Z,5.60
2019-04-06T04:21:07.085Z,5.57
2019-04-06T04:23:33.272Z,5.56
2019-04-06T04:25:59.534Z,5.54
2019-04-06T04:28:46.166Z,5.47
2019-04-06T04:31:12.282Z,5.37
2019-04-06T04:33:38.522Z,5.32
2019-04-06T04:36:04.720Z,5.28
2019-04-06T04:38:30.931Z,5.26
2019-04-06T04:40:57.080Z,5.22
2019-04-06T04:43:23.339Z,5.23
2019-04-06T04:45:49.535Z,5.23
2019-04-06T04:48:15.769Z,5.25
2019-04-06T04:50:41.960Z,5.25
2019-04-06T04:53:08.044Z,5.30
2019-04-06T04:55:34.416Z,5.30
2019-04-06T04:58:00.698Z,5.31
2019-04-06T05:00:26.992Z,5.32
2019-04-06T05:02:53.268Z,5.34
2019-04-06T05:05:19.496Z,5.38
2019-04-06T05:07:45.668Z,5.44
2019-04-06T05:10:12.042Z,5.47
2019-04-06T05:12:38.217Z,5.49
2019-04-06T05:15:07.953Z,5.49
2019-04-06T05:17:34.120Z,5.52
2019-04-06T05:20:00.369Z,5.54
2019-04-06T05:22:26.947Z,5.58
2019-04-06T05:24:53.200Z,5.60
2019-04-06T05:27:19.456Z,5.66
2019-04-06T05:29:45.679Z,5.72
2019-04-06T05:32:11.891Z,5.78
2019-04-06T05:34:39.311Z,5.82
2019-04-06T05:37:05.641Z,5.88
2019-04-06T05:39:31.862Z,5.94
2019-04-06T05:41:58.255Z,5.99
2019-04-06T05:44:27.484Z,6.06
2019-04-06T05:46:53.857Z,6.21
2019-04-06T05:49:20.193Z,6.33
2019-04-06T05:51:46.451Z,6.44
2019-04-06T05:54:12.609Z,6.58
2019-04-06T05:56:38.808Z,6.75
2019-04-06T05:59:04.906Z,6.91
2019-04-06T06:01:31.113Z,7.08
2019-04-06T06:03:57.421Z,7.24
2019-04-06T06:06:23.628Z,7.36
2019-04-06T06:08:49.823Z,7.49
2019-04-06T06:11:16.097Z,7.55
2019-04-06T06:13:42.234Z,7.62
2019-04-06T06:16:08.499Z,7.72
2019-04-06T06:18:34.641Z,7.84
2019-04-06T06:21:00.806Z,7.94
2019-04-06T06:23:27.152Z,8.03
2019-04-06T06:25:54.410Z,8.09
2019-04-06T06:28:20.597Z,8.11
2019-04-06T06:30:46.771Z,8.09
2019-04-06T06:33:12.917Z,8.07
2019-04-06T06:35:39.067Z,8.03
2019-04-06T06:38:05.203Z,8.03
2019-04-06T06:40:31.388Z,8.01
2019-04-06T06:42:57.592Z,8.02
2019-04-06T06:45:23.894Z,8.03
2019-04-06T06:47:49.982Z,8.04
2019-04-06T06:50:16.476Z,8.05
2019-04-06T06:52:42.649Z,8.09
2019-04-06T06:55:09.263Z,8.13
2019-04-06T06:57:35.438Z,8.18
2019-04-06T07:00:03.109Z,8.23
2019-04-06T07:02:29.464Z,8.28
2019-04-06T07:04:55.640Z,8.35
2019-04-06T07:07:21.804Z,8.42
2019-04-06T07:09:48.878Z,8.48
2019-04-06T07:12:16.104Z,8.56
2019-04-06T07:14:42.323Z,8.64
2019-04-06T07:17:08.468Z,8.72
2019-04-06T07:19:34.677Z,8.81
2019-04-06T07:22:00.768Z,8.89
2019-04-06T07:24:26.992Z,8.98
2019-04-06T07:26:53.187Z,9.07
2019-04-06T07:29:20.478Z,9.15
2019-04-06T07:31:46.680Z,9.24
2019-04-06T07:34:12.869Z,9.33
2019-04-06T07:36:40.039Z,9.44
2019-04-06T07:39:06.216Z,9.55
2019-04-06T07:41:32.484Z,9.65
2019-04-06T07:43:58.757Z,9.73
2019-04-06T07:46:25.036Z,9.81
2019-04-06T07:48:51.416Z,9.90
2019-04-06T07:51:17.523Z,9.99
2019-04-06T07:53:43.906Z,10.09
2019-04-06T07:56:10.093Z,10.18
2019-04-06T07:58:47.444Z,10.25
2019-04-06T08:01:04.426Z,10.33
2019-04-06T08:03:30.526Z,10.42
2019-04-06T08:05:56.748Z,10.52
2019-04-06T08:08:22.841Z,10.61
2019-04-06T08:10:49.214Z,10.73
2019-04-06T08:13:16.355Z,10.82
2019-04-06T08:15:42.564Z,10.92
2019-04-06T08:18:08.652Z,11.02
2019-04-06T08:20:36.173Z,11.13
2019-04-06T08:23:02.478Z,11.24
2019-04-06T08:25:28.847Z,11.34
2019-04-06T08:27:54.971Z,11.44
2019-04-06T08:30:21.221Z,11.54
2019-04-06T08:32:47.565Z,11.67
2019-04-06T08:35:24.664Z,11.80
2019-04-06T08:37:41.857Z,11.93
2019-04-06T08:40:08.374Z,12.08
2019-04-06T08:42:34.464Z,12.20
2019-04-06T08:45:02.179Z,12.34
2019-04-06T08:47:28.620Z,12.50
2019-04-06T08:49:54.997Z,12.65
2019-04-06T08:52:21.251Z,12.80
2019-04-06T08:54:47.468Z,12.96
2019-04-06T08:57:13.560Z,13.12
2019-04-06T08:59:40.779Z,13.26
2019-04-06T09:02:06.941Z,13.43
2019-04-06T09:04:33.191Z,13.58
2019-04-06T09:06:59.377Z,13.74
2019-04-06T09:09:25.545Z,13.95
2019-04-06T09:11:51.930Z,14.13
2019-04-06T09:14:18.239Z,14.33
2019-04-06T09:16:44.509Z,14.57
2019-04-06T09:19:10.795Z,14.80
2019-04-06T09:21:36.944Z,15.08
2019-04-06T09:24:03.125Z,15.34
2019-04-06T09:26:29.253Z,15.58
2019-04-06T09:28:55.522Z,15.51
2019-04-06T09:31:21.803Z,15.62
2019-04-06T09:33:49.052Z,15.78
2019-04-06T09:36:15.465Z,15.80
2019-04-06T09:38:41.553Z,16.11
2019-04-06T09:41:07.865Z,16.40
2019-04-06T09:43:33.999Z,16.72
2019-04-06T09:46:02.353Z,16.91
2019-04-06T09:48:48.560Z,17.16
2019-04-06T09:51:19.630Z,17.42
2019-04-06T09:54:06.297Z,17.56
2019-04-06T09:56:51.305Z,17.79
2019-04-06T09:59:37.571Z,18.12
2019-04-06T10:02:06.419Z,18.38
2019-04-06T10:04:51.356Z,18.72
2019-04-06T10:07:25.651Z,18.67
2019-04-06T10:10:10.114Z,19.01
2019-04-06T10:12:41.151Z,19.29
2019-04-06T10:15:09.543Z,19.47
2019-04-06T10:17:46.274Z,19.66
2019-04-06T10:20:14.660Z,19.98
2019-04-06T10:22:42.974Z,19.91
2019-04-06T10:25:19.973Z,20.08
2019-04-06T10:27:48.130Z,20.47
2019-04-06T10:30:33.973Z,20.91
2019-04-06T10:33:16.989Z,21.24
2019-04-06T10:35:47.949Z,21.64
2019-04-06T10:38:15.999Z,22.04
2019-04-06T10:40:49.943Z,22.50
2019-04-06T10:43:21.211Z,23.21
2019-04-06T10:46:06.122Z,23.84
2019-04-06T10:48:43.059Z,24.50
2019-04-06T10:51:28.434Z,24.78
2019-04-06T10:54:08.826Z,25.11
2019-04-06T10:56:48.981Z,25.97
2019-04-06T10:59:20.428Z,26.66
2019-04-06T11:01:54.502Z,26.53
2019-04-06T11:04:31.818Z,25.37
2019-04-06T11:07:03.074Z,24.67
2019-04-06T11:09:31.195Z,26.41
2019-04-06T11:11:59.453Z,27.63
2019-04-06T11:14:40.044Z,26.93
2019-04-06T11:17:22.989Z,26.00
2019-04-06T11:20:08.356Z,27.61
2019-04-06T11:22:36.437Z,28.65
2019-04-06T11:25:09.532Z,26.63
2019-04-06T11:27:49.680Z,26.59
2019-04-06T11:30:27.218Z,25.67
2019-04-06T11:32:58.161Z,24.63
2019-04-06T11:35:43.369Z,25.68
2019-04-06T11:38:21.242Z,25.59
2019-04-06T11:40:49.570Z,24.89
2019-04-06T11:43:17.797Z,23.81
2019-04-06T11:45:48.544Z,23.03
2019-04-06T11:48:33.193Z,24.39
2019-04-06T11:51:18.617Z,24.15
2019-04-06T11:53:52.521Z,24.69
2019-04-06T11:56:38.723Z,23.64
2019-04-06T11:59:15.980Z,24.78
2019-04-06T12:01:49.979Z,26.81
2019-04-06T12:04:27.184Z,28.44
2019-04-06T12:06:55.435Z,29.07
2019-04-06T12:09:32.623Z,27.64
2019-04-06T12:12:17.392Z,26.15
2019-04-06T12:14:51.086Z,25.02
2019-04-06T12:17:19.139Z,23.91
2019-04-06T12:20:06.376Z,23.10
2019-04-06T12:26:15.211Z,21.81
2019-04-06T12:28:53.428Z,21.29
2019-04-06T12:31:28.142Z,21.02
2019-04-06T12:34:12.189Z,20.71
2019-04-06T12:36:49.588Z,20.46
2019-04-06T12:39:20.597Z,20.17
2019-04-06T12:42:07.232Z,19.92
2019-04-06T12:44:38.510Z,19.71
2019-04-06T12:47:15.656Z,19.56
2019-04-06T12:49:47.252Z,19.42
2019-04-06T12:52:18.516Z,19.19
2019-04-06T12:54:49.422Z,18.83
2019-04-06T12:57:34.045Z,18.83
2019-04-06T13:00:18.612Z,18.87
2019-04-06T13:02:49.676Z,18.81
2019-04-06T13:05:26.542Z,18.71
2019-04-06T13:07:57.609Z,18.67
2019-04-06T13:10:38.072Z,18.53
2019-04-06T13:13:09.446Z,18.40
2019-04-06T13:19:17.202Z,18.31
2019-04-06T13:21:54.253Z,18.21
2019-04-06T13:24:28.403Z,18.09
2019-04-06T13:27:05.556Z,18.01
2019-04-06T13:29:43.779Z,17.99
2019-04-06T13:32:30.053Z,17.94
2019-04-06T13:35:01.297Z,17.87
2019-04-06T13:37:32.305Z,17.93
2019-04-06T13:40:00.292Z,17.97
2019-04-06T13:42:28.427Z,17.94
2019-04-06T13:44:56.892Z,18.02
2019-04-06T13:47:25.551Z,17.91
2019-04-06T13:49:59.623Z,17.87
2019-04-06T13:52:39.863Z,18.00
2019-04-06T13:55:14.734Z,18.14
2019-04-06T13:57:45.636Z,18.27
2019-04-06T14:00:23.175Z,18.41
2019-04-06T14:03:08.034Z,18.58
2019-04-06T14:05:39.373Z,18.84
2019-04-06T14:08:11.263Z,19.75
2019-04-06T14:10:56.525Z,20.67
2019-04-06T14:13:27.820Z,21.98
2019-04-06T14:16:01.704Z,23.01
2019-04-06T14:18:31.149Z,23.94
2019-04-06T14:21:05.560Z,24.26
2019-04-06T14:23:36.515Z,24.76
2019-04-06T14:26:10.649Z,25.31
2019-04-06T14:28:41.691Z,26.07
2019-04-06T14:31:28.304Z,26.46
2019-04-06T14:34:04.149Z,26.67
2019-04-06T14:36:50.637Z,27.06
2019-04-06T14:39:21.902Z,26.55
2019-04-06T14:42:06.498Z,25.56
2019-04-06T14:44:34.561Z,25.63
2019-04-06T14:47:17.492Z,25.81
2019-04-06T14:50:01.890Z,26.25
2019-04-06T14:52:46.644Z,27.21
2019-04-06T14:55:27.113Z,27.95
2019-04-06T14:58:01.397Z,28.06
2019-04-06T15:00:41.552Z,28.15
2019-04-06T15:03:26.142Z,28.20
2019-04-06T15:05:54.273Z,28.39
2019-04-06T15:08:37.672Z,28.86
2019-04-06T15:11:08.641Z,29.12
2019-04-06T15:13:54.682Z,27.96
2019-04-06T15:16:28.842Z,26.53
2019-04-06T15:19:14.131Z,25.65
2019-04-06T15:21:42.316Z,24.95
2019-04-06T15:24:16.417Z,24.25
2019-04-06T15:26:53.593Z,23.45
2019-04-06T15:29:34.326Z,23.21
2019-04-06T15:32:11.589Z,22.55
2019-04-06T15:34:39.581Z,22.02
2019-04-06T15:37:10.728Z,21.64
2019-04-06T15:39:42.090Z,21.34
2019-04-06T15:42:10.584Z,21.00
2019-04-06T15:44:39.098Z,20.57
2019-04-06T15:47:07.332Z,20.15
2019-04-06T15:49:39.177Z,19.82
2019-04-06T15:52:25.069Z,19.55
2019-04-06T15:54:53.465Z,19.39
2019-04-06T15:57:33.992Z,18.95
2019-04-06T16:00:07.994Z,18.95
2019-04-06T16:02:42.006Z,18.97
2019-04-06T16:05:14.486Z,18.84
2019-04-06T16:07:42.538Z,18.62
2019-04-06T16:10:14.283Z,18.42
2019-04-06T16:12:45.747Z,18.29
2019-04-06T16:15:29.673Z,18.18
2019-04-06T16:18:09.750Z,18.10
2019-04-06T16:20:41.080Z,18.08
2019-04-06T16:23:26.775Z,17.93
2019-04-06T16:26:00.915Z,17.80
2019-04-06T16:28:29.036Z,17.73
2019-04-06T16:31:00.582Z,17.59
2019-04-06T16:33:45.903Z,17.44
2019-04-06T16:36:17.322Z,17.24
2019-04-06T16:38:55.017Z,17.09
2019-04-06T16:41:42.209Z,16.95
2019-04-06T16:44:10.489Z,16.93
2019-04-06T16:46:56.549Z,16.91
2019-04-06T16:49:30.964Z,16.88
2019-04-06T16:52:16.327Z,16.78
2019-04-06T16:54:48.311Z,16.71
2019-04-06T16:57:33.341Z,16.68
2019-04-06T17:00:16.159Z,16.64
2019-04-06T17:02:50.876Z,16.59
2019-04-06T17:05:25.362Z,16.52
2019-04-06T17:08:12.811Z,16.45
2019-04-06T17:10:59.301Z,16.37
2019-04-06T17:13:45.758Z,16.31
2019-04-06T17:16:20.226Z,16.28
2019-04-06T17:19:00.647Z,16.24
2019-04-06T17:21:29.177Z,16.12
2019-04-06T17:23:59.896Z,16.03
2019-04-06T17:26:28.817Z,15.88
2019-04-06T17:29:05.645Z,15.71
2019-04-06T17:31:52.616Z,15.56
2019-04-06T17:34:29.662Z,15.39
2019-04-06T17:36:57.913Z,15.26
2019-04-06T17:39:29.212Z,15.09
2019-04-06T17:41:57.549Z,14.91
2019-04-06T17:44:31.537Z,14.75
2019-04-06T17:47:16.775Z,14.66
2019-04-06T17:50:03.622Z,14.60
2019-04-06T17:52:40.568Z,14.50
2019-04-06T17:55:14.485Z,14.41
2019-04-06T17:57:55.093Z,14.34
2019-04-06T18:00:23.347Z,14.27
2019-04-06T18:02:51.460Z,14.20
2019-04-06T18:05:28.688Z,14.16
2019-04-06T18:08:00.036Z,14.13
2019-04-06T18:10:34.524Z,14.08
2019-04-06T18:13:02.835Z,14.01
2019-04-06T18:15:30.470Z,13.96
2019-04-06T18:17:56.617Z,13.91
2019-04-06T18:20:23.218Z,13.83
2019-04-06T18:22:49.449Z,13.74
2019-04-06T18:25:15.725Z,13.67
2019-04-06T18:27:42.533Z,13.61
2019-04-06T18:30:10.393Z,13.54
2019-04-06T18:33:01.223Z,13.46
2019-04-06T18:35:22.275Z,13.42
2019-04-06T18:37:50.406Z,13.31
2019-04-06T18:40:18.854Z,13.27
2019-04-06T18:42:45.334Z,13.18
2019-04-06T18:45:11.889Z,13.10
2019-04-06T18:47:38.198Z,13.03
2019-04-06T18:50:04.867Z,12.96
2019-04-06T18:52:31.174Z,12.91
2019-04-06T18:54:57.468Z,12.88
2019-04-06T18:57:23.853Z,12.84
2019-04-06T18:59:50.411Z,12.79
2019-04-06T19:02:16.621Z,12.72
2019-04-06T19:04:43.141Z,12.63
2019-04-06T19:07:09.984Z,12.60
2019-04-06T19:09:36.456Z,12.54
2019-04-06T19:12:03.080Z,12.48
2019-04-06T19:14:29.356Z,12.44
2019-04-06T19:16:55.937Z,12.40
2019-04-06T19:19:23.163Z,12.33
2019-04-06T19:21:49.386Z,12.27
2019-04-06T19:24:15.651Z,12.22
2019-04-06T19:26:42.227Z,12.17
2019-04-06T19:29:08.467Z,12.08
2019-04-06T19:31:34.610Z,12.01
2019-04-06T19:34:01.180Z,11.91
2019-04-06T19:36:27.498Z,11.84
2019-04-06T19:38:54.062Z,11.77
2019-04-06T19:41:20.535Z,11.69
2019-04-06T19:43:46.947Z,11.62
2019-04-06T19:46:13.516Z,11.56
2019-04-06T19:48:40.773Z,11.54
2019-04-06T19:51:07.406Z,11.51
2019-04-06T19:53:33.620Z,11.48
2019-04-06T19:55:59.967Z,11.48
2019-04-06T19:58:26.393Z,11.46
2019-04-06T20:00:52.566Z,11.41
2019-04-06T20:03:19.113Z,11.35
2019-04-06T20:05:46.755Z,11.31
2019-04-06T20:08:13.137Z,11.24
2019-04-06T20:10:39.682Z,11.15
2019-04-06T20:13:06.033Z,11.12
2019-04-06T20:15:32.239Z,11.07
2019-04-06T20:17:59.104Z,11.02
2019-04-06T20:20:25.362Z,10.98
2019-04-06T20:22:51.637Z,10.93
2019-04-06T20:25:17.806Z,10.86
2019-04-06T20:27:44.696Z,10.82
2019-04-06T20:30:11.312Z,10.79
2019-04-06T20:32:38.070Z,10.76
2019-04-06T20:35:06.521Z,10.74
2019-04-06T20:37:33.094Z,10.69
2019-04-06T20:39:59.356Z,10.67
2019-04-06T20:42:25.775Z,10.62
2019-04-06T20:44:51.981Z,10.55
2019-04-06T20:47:18.179Z,10.54
2019-04-06T20:49:44.278Z,10.50
2019-04-06T20:52:11.795Z,10.45
2019-04-06T20:54:38.422Z,10.42
2019-04-06T20:57:04.757Z,10.37
2019-04-06T20:59:31.610Z,10.34
2019-04-06T21:01:58.027Z,10.31
2019-04-06T21:04:24.711Z,10.28
2019-04-06T21:06:51.530Z,10.25
2019-04-06T21:09:17.772Z,10.23
2019-04-06T21:11:43.924Z,10.22
2019-04-06T21:14:10.115Z,10.19
2019-04-06T21:16:36.360Z,10.17
2019-04-06T21:19:02.757Z,10.16
2019-04-06T21:21:28.919Z,10.12
2019-04-06T21:23:55.091Z,10.11
2019-04-06T21:26:21.539Z,10.10
2019-04-06T21:28:47.746Z,10.07
2019-04-06T21:31:14.197Z,10.05
2019-04-06T21:33:40.546Z,10.01
2019-04-06T21:36:06.701Z,9.98
2019-04-06T21:38:33.190Z,9.94
2019-04-06T21:40:59.529Z,9.92
2019-04-06T21:43:25.737Z,9.88
2019-04-06T21:45:52.125Z,9.87
2019-04-06T21:48:18.351Z,9.84
2019-04-06T21:50:45.549Z,9.81
2019-04-06T21:53:12.128Z,9.80
2019-04-06T21:55:39.033Z,9.76
2019-04-06T21:58:05.383Z,9.72
2019-04-06T22:00:51.218Z,9.67
2019-04-06T22:03:19.981Z,9.63
2019-04-06T22:05:47.796Z,9.61
2019-04-06T22:08:14.241Z,9.59
2019-04-06T22:10:40.391Z,9.56
2019-04-06T22:13:06.578Z,9.53
2019-04-06T22:15:32.982Z,9.50
2019-04-06T22:17:59.079Z,9.47
2019-04-06T22:20:25.385Z,9.46
2019-04-06T22:22:51.510Z,9.42
2019-04-06T22:25:17.753Z,9.40
2019-04-06T22:27:44.002Z,9.35
2019-04-06T22:30:10.476Z,9.32
2019-04-06T22:32:36.833Z,9.30
2019-04-06T22:35:07.240Z,9.27
2019-04-06T22:37:34.423Z,9.22
2019-04-06T22:40:00.685Z,9.20
2019-04-06T22:42:27.325Z,9.16
2019-04-06T22:44:53.587Z,9.12
2019-04-06T22:47:19.853Z,9.09
2019-04-06T22:49:46.651Z,9.06
2019-04-06T22:52:13.049Z,9.02
2019-04-06T22:54:40.361Z,8.97
2019-04-06T22:57:06.467Z,8.95
2019-04-06T22:59:32.672Z,8.91
2019-04-06T23:01:58.847Z,8.90
2019-04-06T23:04:27.031Z,8.86
2019-04-06T23:06:55.209Z,8.83
2019-04-06T23:09:21.435Z,8.80
2019-04-06T23:11:47.640Z,8.78
2019-04-06T23:14:14.838Z,8.76
2019-04-06T23:16:40.989Z,8.72
2019-04-06T23:19:07.147Z,8.70
2019-04-06T23:21:33.322Z,8.69
2019-04-06T23:23:59.598Z,8.65
2019-04-06T23:26:26.161Z,8.63
2019-04-06T23:28:52.785Z,8.63
2019-04-06T23:31:19.103Z,8.62
2019-04-06T23:33:45.255Z,8.57
2019-04-06T23:36:11.948Z,8.56
2019-04-06T23:38:38.230Z,8.50
2019-04-06T23:41:04.498Z,8.47
2019-04-06T23:43:31.177Z,8.45
2019-04-06T23:45:58.005Z,8.38
2019-04-06T23:48:24.265Z,8.34
2019-04-06T23:50:50.494Z,8.33
2019-04-06T23:53:16.967Z,8.31
2019-04-06T23:55:43.807Z,8.27
2019-04-06T23:58:10.019Z,8.23
